createdAt,value
2023-02-18T00:02:28.111Z,2.23
2023-02-18T00:05:30.476Z,1.93
2023-02-18T00:08:32.507Z,1.97
2023-02-18T00:11:36.176Z,2.27
2023-02-18T00:14:38.706Z,2.13
2023-02-18T00:17:40.979Z,2.40
2023-02-18T00:20:43.095Z,2.13
2023-02-18T00:23:45.377Z,2.13
2023-02-18T00:26:51.366Z,2.30
2023-02-18T00:29:53.652Z,2.27
2023-02-18T00:32:55.702Z,2.20
2023-02-18T00:36:03.783Z,2.13
2023-02-18T00:39:08.607Z,2.27
2023-02-18T00:42:11.235Z,2.13
2023-02-18T00:45:13.268Z,2.17
2023-02-18T00:48:15.534Z,1.83
2023-02-18T00:51:19.172Z,1.80
2023-02-18T00:54:21.413Z,2.10
2023-02-18T00:57:23.400Z,1.93
2023-02-18T01:00:25.663Z,2.37
2023-02-18T01:03:27.705Z,2.00
2023-02-18T01:06:29.987Z,2.50
2023-02-18T01:09:32.091Z,2.50
2023-02-18T01:12:34.352Z,2.07
2023-02-18T01:15:36.318Z,2.10
2023-02-18T01:18:40.453Z,2.77
2023-02-18T01:21:42.421Z,2.10
2023-02-18T01:24:46.330Z,2.57
2023-02-18T01:27:48.509Z,2.27
2023-02-18T01:30:52.160Z,1.87
2023-02-18T01:33:54.500Z,1.93
2023-02-18T01:36:56.880Z,1.90
2023-02-18T01:39:58.950Z,2.77
2023-02-18T01:43:01.500Z,2.40
2023-02-18T01:46:14.804Z,2.20
2023-02-18T01:49:21.325Z,2.27
2023-02-18T01:52:26.304Z,2.60
2023-02-18T01:55:28.611Z,2.67
2023-02-18T01:58:31.295Z,2.40
2023-02-18T02:01:33.916Z,2.63
2023-02-18T02:04:35.891Z,2.13
2023-02-18T02:07:39.113Z,2.30
2023-02-18T02:11:15.488Z,2.90
2023-02-18T02:14:46.777Z,2.10
2023-02-18T02:17:57.589Z,2.20
2023-02-18T02:21:18.568Z,2.10
2023-02-18T02:24:49.214Z,3.00
2023-02-18T02:28:06.552Z,2.47
2023-02-18T02:31:26.892Z,2.00
2023-02-18T02:34:43.155Z,2.50
2023-02-18T02:37:49.360Z,3.20
2023-02-18T02:41:00.485Z,2.10
2023-02-18T02:44:20.436Z,2.47
2023-02-18T02:47:37.406Z,2.27
2023-02-18T02:51:01.545Z,3.03
2023-02-18T02:54:24.946Z,3.30
2023-02-18T02:57:27.015Z,2.83
2023-02-18T03:00:57.367Z,2.40
2023-02-18T03:04:36.180Z,2.50
2023-02-18T03:07:56.586Z,2.13
2023-02-18T03:11:18.177Z,2.67
2023-02-18T03:14:51.041Z,2.40
2023-02-18T03:18:17.443Z,2.07
2023-02-18T03:21:26.895Z,2.20
2023-02-18T03:24:34.124Z,2.27
2023-02-18T03:28:03.805Z,2.30
2023-02-18T03:31:21.256Z,3.03
2023-02-18T03:34:37.909Z,2.90
2023-02-18T03:37:49.083Z,2.47
2023-02-18T03:40:51.432Z,2.40
2023-02-18T03:43:58.273Z,2.30
2023-02-18T03:47:00.605Z,2.73
2023-02-18T03:50:02.671Z,2.60
2023-02-18T03:53:04.985Z,2.40
2023-02-18T03:56:07.579Z,2.70
2023-02-18T03:59:11.454Z,2.40
2023-02-18T04:02:13.444Z,2.40
2023-02-18T04:05:15.946Z,2.40
2023-02-18T04:08:17.920Z,2.30
2023-02-18T04:11:20.259Z,2.43
2023-02-18T04:14:22.281Z,2.30
2023-02-18T04:17:24.545Z,2.27
2023-02-18T04:20:26.600Z,2.33
2023-02-18T04:23:29.084Z,2.70
2023-02-18T04:26:31.048Z,2.70
2023-02-18T04:29:33.360Z,3.17
2023-02-18T04:32:35.351Z,2.53
2023-02-18T04:35:41.889Z,2.10
2023-02-18T04:38:44.037Z,2.43
2023-02-18T04:41:46.354Z,2.10
2023-02-18T04:44:48.407Z,2.60
2023-02-18T04:47:50.670Z,2.40
2023-02-18T04:50:52.657Z,2.60
2023-02-18T04:53:54.940Z,2.30
2023-02-18T04:56:56.965Z,2.30
2023-02-18T04:59:59.209Z,3.17
2023-02-18T05:03:01.171Z,2.20
2023-02-18T05:06:04.075Z,2.93
2023-02-18T05:09:06.915Z,2.27
2023-02-18T05:12:09.352Z,2.27
2023-02-18T05:15:11.724Z,2.37
2023-02-18T05:18:14.160Z,3.07
2023-02-18T05:21:16.144Z,2.53
2023-02-18T05:24:18.428Z,2.40
2023-02-18T05:27:20.399Z,3.13
2023-02-18T05:30:22.868Z,2.10
2023-02-18T05:33:24.921Z,1.80
2023-02-18T05:36:27.225Z,2.50
2023-02-18T05:39:29.295Z,2.60
2023-02-18T05:42:32.957Z,2.47
2023-02-18T05:45:36.285Z,2.67
2023-02-18T05:48:38.622Z,2.30
2023-02-18T05:51:40.602Z,2.33
2023-02-18T05:54:42.912Z,2.67
2023-02-18T05:57:44.997Z,3.30
2023-02-18T06:00:47.330Z,2.67
2023-02-18T06:03:49.295Z,2.40
2023-02-18T06:06:51.870Z,2.40
2023-02-18T06:09:53.941Z,2.60
2023-02-18T06:12:56.395Z,2.50
2023-02-18T06:15:58.443Z,2.37
2023-02-18T06:19:00.792Z,2.30
2023-02-18T06:22:02.958Z,2.30
2023-02-18T06:25:05.387Z,2.40
2023-02-18T06:28:07.483Z,2.63
2023-02-18T06:31:09.913Z,2.53
2023-02-18T06:34:12.020Z,2.13
2023-02-18T06:37:14.251Z,3.50
2023-02-18T06:40:16.396Z,3.30
2023-02-18T06:43:19.357Z,2.33
2023-02-18T06:46:21.471Z,2.80
2023-02-18T06:49:23.706Z,2.40
2023-02-18T06:52:25.742Z,2.43
2023-02-18T06:55:28.117Z,2.60
2023-02-18T06:58:30.260Z,2.43
2023-02-18T07:01:32.515Z,2.47
2023-02-18T07:04:34.951Z,2.97
2023-02-18T07:07:37.271Z,2.37
2023-02-18T07:10:39.824Z,2.77
2023-02-18T07:13:42.154Z,3.53
2023-02-18T07:16:44.206Z,2.80
2023-02-18T07:19:46.604Z,2.47
2023-02-18T07:22:48.845Z,2.30
2023-02-18T07:25:51.180Z,2.87
2023-02-18T07:28:53.186Z,2.70
2023-02-18T07:31:55.475Z,2.60
2023-02-18T07:34:57.560Z,2.30
2023-02-18T07:37:59.915Z,2.57
2023-02-18T07:41:14.958Z,2.47
2023-02-18T07:44:19.809Z,3.00
2023-02-18T07:47:23.376Z,2.53
2023-02-18T07:50:25.698Z,2.43
2023-02-18T07:53:27.742Z,3.13
2023-02-18T07:56:30.088Z,3.00
2023-02-18T07:59:32.217Z,2.70
2023-02-18T08:02:34.730Z,2.70
2023-02-18T08:05:37.109Z,3.07
2023-02-18T08:08:39.703Z,2.40
2023-02-18T08:11:41.846Z,2.67
2023-02-18T08:14:44.366Z,2.63
2023-02-18T08:17:46.533Z,2.40
2023-02-18T08:20:50.087Z,3.50
2023-02-18T08:23:52.443Z,2.30
2023-02-18T08:27:00.840Z,2.90
2023-02-18T08:30:04.128Z,2.83
2023-02-18T08:33:06.413Z,2.00
2023-02-18T08:36:11.017Z,2.70
2023-02-18T08:39:13.683Z,2.83
2023-02-18T08:42:20.888Z,3.00
2023-02-18T08:45:26.181Z,2.43
2023-02-18T08:48:30.730Z,2.63
2023-02-18T08:51:33.601Z,2.47
2023-02-18T08:54:35.803Z,2.40
2023-02-18T08:57:38.154Z,2.40
2023-02-18T09:00:42.247Z,3.53
2023-02-18T09:03:44.716Z,2.37
2023-02-18T09:06:50.190Z,2.30
2023-02-18T09:09:52.522Z,2.50
2023-02-18T09:12:54.494Z,3.00
2023-02-18T09:16:20.740Z,2.60
2023-02-18T09:19:22.785Z,2.80
2023-02-18T09:22:25.240Z,2.17
2023-02-18T09:25:27.255Z,1.90
2023-02-18T09:28:29.550Z,2.13
2023-02-18T09:31:31.708Z,2.20
2023-02-18T09:34:34.581Z,2.60
2023-02-18T09:37:36.584Z,2.27
2023-02-18T09:40:44.554Z,1.80
2023-02-18T09:43:50.636Z,1.83
2023-02-18T09:46:57.592Z,2.37
2023-02-18T09:50:06.624Z,2.00
2023-02-18T09:53:13.109Z,2.10
2023-02-18T09:56:29.770Z,1.77
2023-02-18T09:59:32.256Z,2.00
2023-02-18T10:02:35.246Z,1.87
2023-02-18T10:05:41.056Z,2.00
2023-02-18T10:08:46.204Z,1.60
2023-02-18T10:11:52.485Z,2.10
2023-02-18T10:14:56.582Z,1.37
2023-02-18T10:18:00.071Z,1.80
2023-02-18T10:21:12.528Z,1.70
2023-02-18T10:24:23.878Z,1.90
2023-02-18T10:27:27.585Z,1.73
2023-02-18T10:30:37.845Z,1.37
2023-02-18T10:34:01.915Z,1.43
2023-02-18T10:37:42.777Z,1.43
2023-02-18T10:41:13.092Z,1.43
2023-02-18T10:44:24.296Z,1.40
2023-02-18T10:47:58.047Z,1.20
2023-02-18T10:51:08.908Z,1.40
2023-02-18T10:54:14.848Z,1.13
2023-02-18T10:57:24.358Z,1.20
2023-02-18T11:00:34.977Z,1.47
2023-02-18T11:03:49.313Z,1.30
2023-02-18T11:06:52.706Z,1.60
2023-02-18T11:09:57.751Z,1.40
2023-02-18T11:13:09.048Z,1.10
2023-02-18T11:16:12.839Z,1.53
2023-02-18T11:19:35.278Z,1.27
2023-02-18T11:22:39.928Z,1.40
2023-02-18T11:25:52.541Z,1.20
2023-02-18T11:29:36.474Z,1.23
2023-02-18T11:32:38.691Z,1.10
2023-02-18T11:35:52.511Z,1.70
2023-02-18T11:38:57.927Z,1.10
2023-02-18T11:42:05.035Z,1.30
2023-02-18T11:45:25.911Z,1.17
2023-02-18T11:48:28.643Z,1.30
2023-02-18T11:51:42.325Z,0.87
2023-02-18T11:55:08.844Z,1.00
2023-02-18T11:58:12.032Z,0.80
2023-02-18T12:01:29.176Z,1.20
2023-02-18T12:04:47.812Z,1.13
2023-02-18T12:08:00.820Z,1.00
2023-02-18T12:11:20.484Z,1.60
2023-02-18T12:14:24.475Z,1.07
2023-02-18T12:17:35.284Z,1.40
2023-02-18T12:20:53.723Z,0.90
2023-02-18T12:23:55.735Z,1.10
2023-02-18T12:27:11.989Z,1.10
2023-02-18T12:30:58.294Z,1.70
2023-02-18T12:34:00.537Z,1.60
2023-02-18T12:37:31.237Z,2.00
2023-02-18T12:41:21.378Z,1.90
2023-02-18T12:44:45.509Z,1.53
2023-02-18T12:47:49.206Z,1.30
2023-02-18T12:51:22.809Z,1.70
2023-02-18T12:54:43.406Z,1.50
2023-02-18T12:58:14.960Z,1.67
2023-02-18T13:01:32.388Z,3.73
2023-02-18T13:05:06.157Z,2.60
2023-02-18T13:08:36.538Z,2.30
2023-02-18T13:11:57.072Z,2.80
2023-02-18T13:15:25.008Z,3.47
2023-02-18T13:18:40.752Z,3.50
2023-02-18T13:21:45.375Z,2.60
2023-02-18T13:24:49.661Z,2.40
2023-02-18T13:28:10.641Z,2.80
2023-02-18T13:31:22.541Z,2.50
2023-02-18T13:34:34.715Z,2.40
2023-02-18T13:38:03.761Z,2.57
2023-02-18T13:41:06.691Z,2.40
2023-02-18T13:44:29.213Z,2.67
2023-02-18T13:47:43.824Z,2.00
2023-02-18T13:50:45.776Z,2.33
2023-02-18T13:53:53.116Z,1.60
2023-02-18T13:57:04.028Z,2.80
2023-02-18T14:00:17.228Z,2.93
2023-02-18T14:03:42.040Z,1.60
2023-02-18T14:07:13.356Z,2.03
2023-02-18T14:10:20.883Z,1.60
2023-02-18T14:13:37.884Z,2.30
2023-02-18T14:17:15.304Z,2.37
2023-02-18T14:20:20.627Z,2.27
2023-02-18T14:23:22.688Z,2.53
2023-02-18T14:26:33.000Z,1.60
2023-02-18T14:29:35.190Z,2.00
2023-02-18T14:32:48.614Z,2.27
2023-02-18T14:36:34.601Z,2.23
2023-02-18T14:39:54.232Z,2.00
2023-02-18T14:43:02.422Z,2.07
2023-02-18T14:46:34.306Z,2.03
2023-02-18T14:49:51.544Z,2.40
2023-02-18T14:52:59.256Z,1.93
2023-02-18T14:56:05.777Z,2.47
2023-02-18T14:59:08.714Z,1.90
2023-02-18T15:02:29.632Z,1.90
2023-02-18T15:05:37.240Z,1.90
2023-02-18T15:08:40.431Z,6.63
2023-02-18T15:12:09.502Z,1.37
2023-02-18T15:15:15.120Z,1.73
2023-02-18T15:18:37.893Z,1.77
2023-02-18T15:21:43.269Z,2.20
2023-02-18T15:24:45.924Z,1.90
2023-02-18T15:27:52.157Z,2.00
2023-02-18T15:30:57.045Z,1.83
2023-02-18T15:33:59.247Z,2.00
2023-02-18T15:37:04.112Z,2.30
2023-02-18T15:40:16.059Z,2.03
2023-02-18T15:43:21.681Z,2.77
2023-02-18T15:46:26.413Z,16.00
2023-02-18T15:49:29.717Z,2.93
2023-02-18T15:52:50.774Z,3.07
2023-02-18T15:56:10.436Z,3.13
2023-02-18T15:59:40.625Z,2.70
2023-02-18T16:03:04.151Z,4.30
2023-02-18T16:06:36.955Z,4.80
2023-02-18T16:10:15.362Z,5.70
2023-02-18T16:18:04.243Z,7.70
2023-02-18T16:21:20.085Z,10.67
2023-02-18T16:28:32.478Z,3.97
2023-02-18T16:31:34.807Z,3.43
2023-02-18T16:34:37.064Z,3.33
2023-02-18T16:37:39.794Z,3.47
2023-02-18T16:40:42.027Z,10.10
2023-02-18T16:43:44.446Z,6.50
2023-02-18T16:46:46.516Z,4.30
2023-02-18T16:49:50.775Z,5.40
2023-02-18T16:52:59.611Z,5.73
2023-02-18T16:56:02.961Z,5.70
2023-02-18T16:59:06.055Z,4.53
2023-02-18T17:02:18.233Z,4.93
2023-02-18T17:05:27.573Z,3.80
2023-02-18T17:12:20.414Z,2.90
2023-02-18T17:19:24.271Z,3.17
2023-02-18T17:22:41.051Z,3.30
2023-02-18T17:25:51.106Z,4.27
2023-02-18T17:29:11.856Z,5.13
2023-02-18T17:32:37.532Z,4.07
2023-02-18T17:35:56.081Z,6.93
2023-02-18T17:39:02.721Z,23.57
2023-02-18T17:42:12.910Z,5.63
2023-02-18T17:45:38.130Z,7.03
2023-02-18T17:48:52.616Z,4.20
2023-02-18T17:52:14.698Z,5.30
2023-02-18T17:55:46.751Z,5.90
2023-02-18T17:58:57.738Z,3.90
2023-02-18T18:01:59.716Z,3.63
2023-02-18T18:05:26.858Z,4.30
2023-02-18T18:08:33.460Z,7.33
2023-02-18T18:11:44.732Z,5.70
2023-02-18T18:14:46.675Z,5.50
2023-02-18T18:17:49.391Z,4.53
2023-02-18T18:20:58.755Z,5.83
2023-02-18T18:24:05.920Z,5.20
2023-02-18T18:27:09.723Z,6.40
2023-02-18T18:30:13.256Z,9.93
2023-02-18T18:33:33.209Z,7.37
2023-02-18T18:40:10.688Z,8.77
2023-02-18T18:44:02.796Z,8.33
2023-02-18T18:47:12.710Z,9.43
2023-02-18T18:50:29.503Z,8.67
2023-02-18T18:53:34.005Z,8.60
2023-02-18T18:56:38.666Z,8.47
2023-02-18T18:59:46.106Z,8.60
2023-02-18T19:02:48.394Z,25.50
2023-02-18T19:05:51.780Z,7.70
2023-02-18T19:08:53.786Z,7.40
2023-02-18T19:11:58.623Z,6.90
2023-02-18T19:15:00.637Z,6.67
2023-02-18T19:18:04.545Z,6.00
2023-02-18T19:21:06.686Z,6.70
2023-02-18T19:24:09.064Z,7.53
2023-02-18T19:27:11.094Z,7.67
2023-02-18T19:30:16.554Z,7.50
2023-02-18T19:33:19.001Z,7.87
2023-02-18T19:36:21.295Z,10.80
2023-02-18T19:39:23.317Z,10.63
2023-02-18T19:42:25.985Z,7.93
2023-02-18T19:45:28.211Z,7.20
2023-02-18T19:48:30.472Z,6.87
2023-02-18T19:51:32.625Z,7.20
2023-02-18T19:54:34.958Z,6.67
2023-02-18T19:57:37.223Z,6.57
2023-02-18T20:00:40.547Z,7.70
2023-02-18T20:03:43.319Z,8.40
2023-02-18T20:06:45.564Z,7.63
2023-02-18T20:09:47.604Z,7.87
2023-02-18T20:12:59.468Z,8.60
2023-02-18T20:16:01.503Z,8.13
2023-02-18T20:19:04.078Z,9.00
2023-02-18T20:22:07.520Z,9.17
2023-02-18T20:25:10.045Z,11.10
2023-02-18T20:28:12.165Z,11.67
2023-02-18T20:31:15.983Z,10.57
2023-02-18T20:34:19.233Z,10.97
2023-02-18T20:37:21.770Z,11.60
2023-02-18T20:40:24.585Z,10.20
2023-02-18T20:43:27.172Z,10.33
2023-02-18T20:46:29.426Z,8.90
2023-02-18T20:49:31.883Z,8.37
2023-02-18T20:52:34.843Z,6.50
2023-02-18T20:55:37.282Z,6.03
2023-02-18T20:58:39.901Z,6.13
2023-02-18T21:01:44.664Z,6.57
2023-02-18T21:04:47.803Z,6.90
2023-02-18T21:07:50.935Z,7.67
2023-02-18T21:11:01.948Z,7.77
2023-02-18T21:14:04.786Z,7.93
2023-02-18T21:17:08.509Z,7.57
2023-02-18T21:20:11.734Z,7.00
2023-02-18T21:23:14.036Z,7.87
2023-02-18T21:26:30.878Z,7.63
2023-02-18T21:29:35.219Z,8.90
2023-02-18T21:32:37.829Z,6.80
2023-02-18T21:35:41.180Z,6.60
2023-02-18T21:38:44.793Z,6.87
2023-02-18T21:41:47.011Z,6.70
2023-02-18T21:44:49.327Z,7.27
2023-02-18T21:47:51.400Z,7.13
2023-02-18T21:50:54.053Z,6.43
2023-02-18T21:53:56.065Z,5.90
2023-02-18T21:57:00.151Z,6.03
2023-02-18T22:00:14.620Z,6.20
2023-02-18T22:03:20.789Z,4.93
2023-02-18T22:06:23.309Z,4.97
2023-02-18T22:09:26.454Z,4.87
2023-02-18T22:12:28.695Z,4.90
2023-02-18T22:15:30.966Z,5.87
2023-02-18T22:18:33.629Z,5.10
2023-02-18T22:21:35.883Z,5.40
2023-02-18T22:24:38.014Z,5.40
2023-02-18T22:27:40.224Z,5.67
2023-02-18T22:30:42.309Z,6.00
2023-02-18T22:33:44.666Z,5.83
2023-02-18T22:36:46.756Z,5.60
2023-02-18T22:39:49.627Z,5.63
2023-02-18T22:42:55.575Z,6.00
2023-02-18T22:46:11.958Z,6.10
2023-02-18T22:49:14.312Z,6.13
2023-02-18T22:52:16.626Z,6.30
2023-02-18T22:55:18.572Z,6.40
2023-02-18T22:58:20.821Z,6.13
2023-02-18T23:01:30.489Z,5.80
2023-02-18T23:04:32.788Z,5.53
2023-02-18T23:07:34.756Z,6.80
2023-02-18T23:10:36.986Z,6.00
2023-02-18T23:13:39.512Z,5.83
2023-02-18T23:17:15.246Z,5.67
2023-02-18T23:20:37.902Z,5.50
2023-02-18T23:24:03.058Z,4.93
2023-02-18T23:27:07.053Z,5.00
2023-02-18T23:30:14.317Z,4.93
2023-02-18T23:33:16.280Z,5.43
2023-02-18T23:36:21.490Z,4.93
2023-02-18T23:39:49.951Z,5.30
2023-02-18T23:43:25.874Z,5.30
2023-02-18T23:46:24.353Z,5.10
2023-02-18T23:49:28.706Z,5.10
2023-02-18T23:52:30.679Z,5.43
2023-02-18T23:55:32.899Z,5.63
2023-02-18T23:58:35.467Z,5.47
